createdAt,value
2019-03-28T00:01:13.397Z,29.93
2019-03-28T00:03:40.982Z,28.50
2019-03-28T00:06:08.234Z,29.33
2019-03-28T00:08:35.509Z,28.33
2019-03-28T00:11:02.761Z,27.20
2019-03-28T00:13:30.195Z,28.57
2019-03-28T00:15:58.264Z,30.73
2019-03-28T00:18:25.917Z,29.83
2019-03-28T00:20:53.161Z,30.33
2019-03-28T00:23:22.110Z,28.03
2019-03-28T00:25:49.363Z,32.23
2019-03-28T00:28:16.614Z,31.20
2019-03-28T00:30:44.360Z,31.43
2019-03-28T00:33:11.717Z,32.73
2019-03-28T00:35:38.998Z,32.80
2019-03-28T00:38:06.246Z,30.17
2019-03-28T00:40:33.513Z,32.43
2019-03-28T00:43:00.777Z,29.17
2019-03-28T00:45:28.050Z,31.37
2019-03-28T00:47:55.302Z,32.00
2019-03-28T00:50:22.842Z,31.37
2019-03-28T00:52:50.097Z,33.03
2019-03-28T00:55:17.369Z,30.33
2019-03-28T00:57:44.693Z,31.10
2019-03-28T01:00:12.309Z,32.67
2019-03-28T01:02:39.605Z,30.30
2019-03-28T01:05:06.949Z,29.57
2019-03-28T01:07:34.206Z,32.87
2019-03-28T01:10:01.480Z,30.73
2019-03-28T01:12:28.731Z,32.90
2019-03-28T01:14:55.997Z,31.20
2019-03-28T01:17:23.253Z,32.50
2019-03-28T01:19:50.507Z,33.67
2019-03-28T01:22:17.782Z,33.30
2019-03-28T01:24:45.029Z,31.90
2019-03-28T01:27:12.301Z,32.43
2019-03-28T01:29:39.644Z,30.87
2019-03-28T01:32:06.917Z,30.00
2019-03-28T01:34:34.163Z,32.73
2019-03-28T01:37:01.428Z,32.70
2019-03-28T01:39:28.723Z,32.43
2019-03-28T01:41:55.995Z,31.23
2019-03-28T01:44:23.241Z,34.20
2019-03-28T01:46:50.686Z,30.67
2019-03-28T01:49:18.209Z,33.83
2019-03-28T01:51:45.486Z,32.80
2019-03-28T01:54:12.734Z,32.40
2019-03-28T01:56:40.006Z,32.33
2019-03-28T01:59:07.258Z,34.10
2019-03-28T02:01:34.528Z,34.53
2019-03-28T02:04:02.196Z,33.80
2019-03-28T02:06:29.534Z,30.83
2019-03-28T02:08:56.867Z,33.47
2019-03-28T02:11:24.141Z,33.37
2019-03-28T02:13:51.385Z,32.70
2019-03-28T02:16:18.662Z,32.97
2019-03-28T02:18:45.936Z,32.67
2019-03-28T02:21:13.263Z,32.20
2019-03-28T02:23:40.519Z,33.10
2019-03-28T02:26:07.769Z,32.20
2019-03-28T02:28:35.306Z,32.97
2019-03-28T02:31:02.642Z,34.93
2019-03-28T02:33:30.167Z,34.87
2019-03-28T02:35:57.417Z,32.87
2019-03-28T02:38:24.687Z,31.47
2019-03-28T02:40:51.949Z,35.37
2019-03-28T02:43:19.908Z,35.07
2019-03-28T02:45:47.699Z,35.37
2019-03-28T02:48:14.974Z,32.47
2019-03-28T02:50:42.218Z,34.03
2019-03-28T02:53:09.486Z,34.27
2019-03-28T02:55:37.006Z,34.60
2019-03-28T02:58:04.275Z,33.30
2019-03-28T03:00:31.527Z,36.47
2019-03-28T03:02:58.799Z,36.17
2019-03-28T03:05:26.050Z,35.90
2019-03-28T03:07:53.324Z,30.97
2019-03-28T03:10:20.581Z,33.60
2019-03-28T03:12:47.853Z,34.37
2019-03-28T03:15:15.180Z,34.27
2019-03-28T03:17:42.430Z,33.60
2019-03-28T03:20:09.866Z,34.00
2019-03-28T03:22:37.122Z,35.43
2019-03-28T03:25:05.934Z,33.80
2019-03-28T03:27:33.195Z,34.83
2019-03-28T03:30:00.695Z,32.50
2019-03-28T03:32:27.997Z,33.37
2019-03-28T03:34:55.262Z,32.50
2019-03-28T03:37:22.515Z,33.63
2019-03-28T03:39:50.068Z,32.67
2019-03-28T03:42:17.319Z,31.20
2019-03-28T03:44:44.592Z,29.70
2019-03-28T03:47:12.106Z,33.60
2019-03-28T03:49:39.371Z,32.37
2019-03-28T03:52:06.638Z,33.90
2019-03-28T03:54:33.894Z,31.07
2019-03-28T03:57:01.171Z,29.80
2019-03-28T03:59:28.435Z,29.50
2019-03-28T04:01:55.694Z,33.80
2019-03-28T04:04:22.957Z,32.27
2019-03-28T04:06:50.205Z,30.10
2019-03-28T04:09:17.543Z,33.60
2019-03-28T04:11:44.792Z,29.67
2019-03-28T04:14:12.079Z,30.50
2019-03-28T04:16:39.333Z,29.03
2019-03-28T04:19:06.583Z,30.67
2019-03-28T04:21:33.848Z,29.20
2019-03-28T04:24:01.097Z,28.80
2019-03-28T04:26:28.375Z,32.60
2019-03-28T04:28:55.629Z,26.97
2019-03-28T04:31:22.904Z,30.10
2019-03-28T04:33:50.154Z,28.87
2019-03-28T04:36:17.431Z,31.57
2019-03-28T04:38:44.678Z,31.10
2019-03-28T04:41:12.024Z,30.87
2019-03-28T04:43:39.289Z,33.20
2019-03-28T04:46:06.560Z,32.33
2019-03-28T04:48:33.818Z,31.17
2019-03-28T04:51:01.392Z,29.00
2019-03-28T04:53:29.723Z,28.70
2019-03-28T04:55:57.338Z,31.53
2019-03-28T04:58:24.590Z,33.00
2019-03-28T05:00:52.133Z,32.37
2019-03-28T05:03:19.638Z,32.87
2019-03-28T05:05:46.909Z,33.73
2019-03-28T05:08:14.414Z,32.00
2019-03-28T05:10:41.971Z,32.20
2019-03-28T05:13:09.217Z,36.33
2019-03-28T05:15:36.496Z,32.33
2019-03-28T05:18:03.813Z,33.97
2019-03-28T05:20:31.061Z,36.20
2019-03-28T05:22:58.337Z,33.33
2019-03-28T05:25:25.581Z,33.73
2019-03-28T05:27:52.861Z,33.50
2019-03-28T05:30:20.109Z,32.27
2019-03-28T05:32:47.388Z,31.40
2019-03-28T05:35:14.630Z,32.67
2019-03-28T05:37:41.907Z,35.00
2019-03-28T05:40:09.327Z,31.10
2019-03-28T05:42:36.600Z,30.40
2019-03-28T05:45:04.924Z,32.97
2019-03-28T05:47:32.185Z,38.47
2019-03-28T05:49:59.433Z,34.67
2019-03-28T05:52:26.717Z,35.40
2019-03-28T05:54:53.965Z,35.60
2019-03-28T05:57:21.237Z,37.37
2019-03-28T05:59:48.492Z,37.27
2019-03-28T06:02:15.839Z,33.80
2019-03-28T06:04:43.082Z,34.73
2019-03-28T06:07:10.546Z,35.90
2019-03-28T06:09:40.136Z,36.67
2019-03-28T06:12:06.786Z,32.70
2019-03-28T06:14:34.034Z,33.90
2019-03-28T06:17:01.316Z,35.77
2019-03-28T06:19:28.747Z,36.17
2019-03-28T06:21:56.178Z,34.80
2019-03-28T06:24:23.426Z,35.50
2019-03-28T06:26:50.702Z,36.80
2019-03-28T06:29:23.730Z,36.77
2019-03-28T06:31:55.191Z,33.47
2019-03-28T06:34:16.493Z,36.07
2019-03-28T06:36:43.763Z,36.33
2019-03-28T06:39:11.009Z,37.00
2019-03-28T06:41:38.266Z,39.50
2019-03-28T06:44:05.539Z,38.43
2019-03-28T06:46:33.063Z,37.33
2019-03-28T06:49:00.334Z,35.80
2019-03-28T06:51:27.592Z,34.97
2019-03-28T06:53:57.121Z,36.43
2019-03-28T06:56:25.428Z,36.40
2019-03-28T06:58:52.986Z,38.70
2019-03-28T07:01:20.234Z,37.23
2019-03-28T07:03:47.602Z,36.07
2019-03-28T07:06:14.937Z,36.60
2019-03-28T07:08:42.205Z,38.60
2019-03-28T07:11:09.463Z,39.77
2019-03-28T07:13:36.725Z,38.43
2019-03-28T07:16:03.978Z,35.93
2019-03-28T07:18:31.770Z,38.97
2019-03-28T07:20:59.027Z,38.97
2019-03-28T07:23:26.299Z,36.47
2019-03-28T07:25:53.550Z,40.50
2019-03-28T07:28:20.821Z,41.67
2019-03-28T07:30:48.074Z,36.40
2019-03-28T07:33:15.341Z,35.80
2019-03-28T07:35:42.585Z,33.03
2019-03-28T07:38:09.922Z,34.90
2019-03-28T07:40:37.439Z,36.43
2019-03-28T07:43:04.949Z,40.20
2019-03-28T07:45:34.474Z,40.97
2019-03-28T07:48:01.189Z,39.47
2019-03-28T07:50:28.464Z,36.97
2019-03-28T07:52:55.714Z,40.17
2019-03-28T07:55:22.986Z,40.70
2019-03-28T07:57:50.233Z,42.73
2019-03-28T08:00:17.674Z,40.73
2019-03-28T08:02:44.925Z,39.90
2019-03-28T08:05:12.670Z,37.47
2019-03-28T08:07:45.281Z,37.40
2019-03-28T08:10:09.086Z,35.60
2019-03-28T08:12:36.364Z,35.93
2019-03-28T08:15:08.034Z,37.73
2019-03-28T08:17:35.305Z,34.63
2019-03-28T08:20:03.203Z,33.00
2019-03-28T08:22:30.481Z,33.83
2019-03-28T08:24:57.734Z,31.57
2019-03-28T08:27:25.253Z,29.37
2019-03-28T08:29:52.506Z,30.50
2019-03-28T08:32:21.410Z,29.67
2019-03-28T08:34:48.666Z,31.03
2019-03-28T08:37:15.986Z,28.87
2019-03-28T08:39:44.719Z,31.47
2019-03-28T08:42:12.058Z,30.17
2019-03-28T08:44:39.305Z,27.23
2019-03-28T08:47:06.573Z,27.63
2019-03-28T08:49:34.086Z,27.03
2019-03-28T08:52:01.362Z,28.00
2019-03-28T08:54:28.613Z,26.80
2019-03-28T08:56:55.877Z,23.60
2019-03-28T08:59:23.129Z,24.67
2019-03-28T09:01:50.401Z,24.43
2019-03-28T09:04:17.654Z,23.90
2019-03-28T09:06:44.926Z,23.07
2019-03-28T09:09:12.243Z,21.67
2019-03-28T09:11:39.525Z,22.47
2019-03-28T09:14:06.766Z,22.30
2019-03-28T09:16:34.042Z,23.30
2019-03-28T09:19:01.305Z,22.63
2019-03-28T09:21:28.834Z,22.00
2019-03-28T09:23:56.089Z,24.60
2019-03-28T09:26:23.362Z,23.07
2019-03-28T09:28:50.630Z,18.67
2019-03-28T09:31:20.216Z,21.50
2019-03-28T09:33:46.939Z,21.33
2019-03-28T09:36:14.491Z,14.90
2019-03-28T09:38:41.830Z,14.90
2019-03-28T09:41:09.092Z,13.13
2019-03-28T09:43:36.361Z,14.07
2019-03-28T09:46:03.625Z,14.60
2019-03-28T09:48:30.908Z,14.47
2019-03-28T09:50:58.147Z,14.27
2019-03-28T09:53:25.688Z,16.10
2019-03-28T09:55:52.938Z,12.93
2019-03-28T09:58:20.209Z,16.37
2019-03-28T10:01:01.632Z,16.70
2019-03-28T10:03:16.454Z,17.10
2019-03-28T10:05:43.711Z,18.30
2019-03-28T10:08:10.978Z,15.20
2019-03-28T10:10:38.231Z,16.33
2019-03-28T10:13:05.494Z,17.47
2019-03-28T10:15:32.754Z,16.90
2019-03-28T10:18:00.017Z,15.90
2019-03-28T10:20:27.282Z,15.23
2019-03-28T10:22:54.549Z,19.70
2019-03-28T10:25:21.809Z,20.43
2019-03-28T10:27:49.061Z,20.37
2019-03-28T10:30:16.746Z,23.63
2019-03-28T10:32:44.062Z,24.13
2019-03-28T10:35:13.134Z,22.83
2019-03-28T10:37:40.459Z,19.97
2019-03-28T10:40:08.254Z,21.60
2019-03-28T10:42:35.584Z,22.70
2019-03-28T10:45:03.040Z,22.00
2019-03-28T10:47:30.286Z,23.93
2019-03-28T10:49:57.557Z,20.50
2019-03-28T10:52:24.805Z,21.73
2019-03-28T10:54:52.095Z,22.37
2019-03-28T10:57:29.714Z,20.63
2019-03-28T10:59:48.330Z,23.70
2019-03-28T11:02:15.754Z,20.90
2019-03-28T11:04:43.030Z,20.70
2019-03-28T11:07:10.307Z,22.50
2019-03-28T11:09:37.579Z,23.90
2019-03-28T11:12:04.916Z,20.73
2019-03-28T11:14:32.258Z,17.47
2019-03-28T11:16:59.506Z,18.60
2019-03-28T11:19:26.867Z,19.07
2019-03-28T11:21:54.113Z,18.10
2019-03-28T11:24:21.385Z,18.03
2019-03-28T11:26:48.633Z,16.47
2019-03-28T11:29:15.907Z,15.43
2019-03-28T11:31:46.818Z,17.63
2019-03-28T11:34:12.217Z,17.20
2019-03-28T11:36:39.512Z,15.07
2019-03-28T11:39:07.278Z,15.57
2019-03-28T11:41:34.665Z,14.27
2019-03-28T11:44:02.162Z,13.60
2019-03-28T11:46:29.409Z,13.00
2019-03-28T11:48:56.693Z,12.40
2019-03-28T11:51:23.941Z,12.17
2019-03-28T11:53:51.216Z,11.80
2019-03-28T11:56:18.462Z,11.40
2019-03-28T11:58:45.728Z,9.90
2019-03-28T12:01:13.133Z,10.93
2019-03-28T12:03:40.385Z,9.97
2019-03-28T12:06:07.638Z,9.67
2019-03-28T12:08:34.902Z,8.93
2019-03-28T12:11:02.163Z,10.00
2019-03-28T12:13:29.425Z,9.97
2019-03-28T12:15:56.697Z,9.27
2019-03-28T12:18:25.213Z,8.30
2019-03-28T12:20:52.539Z,8.10
2019-03-28T12:23:19.802Z,7.70
2019-03-28T12:25:47.441Z,6.63
2019-03-28T12:28:14.787Z,6.27
2019-03-28T12:30:42.027Z,7.07
2019-03-28T12:33:09.290Z,6.93
2019-03-28T12:35:36.530Z,7.17
2019-03-28T12:38:03.802Z,7.27
2019-03-28T12:40:31.290Z,7.07
2019-03-28T12:42:58.549Z,6.17
2019-03-28T12:45:26.512Z,7.33
2019-03-28T12:47:54.086Z,6.20
2019-03-28T12:50:21.333Z,5.37
2019-03-28T12:52:48.598Z,5.57
2019-03-28T12:55:15.841Z,5.57
2019-03-28T12:57:43.106Z,5.80
2019-03-28T13:00:11.123Z,5.43
2019-03-28T13:02:38.454Z,6.07
2019-03-28T13:05:08.730Z,6.17
2019-03-28T13:07:36.251Z,6.00
2019-03-28T13:10:05.442Z,5.73
2019-03-28T13:12:33.082Z,5.60
2019-03-28T13:15:00.466Z,5.10
2019-03-28T13:17:27.928Z,5.87
2019-03-28T13:19:55.222Z,6.07
2019-03-28T13:22:22.465Z,5.50
2019-03-28T13:24:49.736Z,6.40
2019-03-28T13:27:17.454Z,6.70
2019-03-28T13:29:44.836Z,5.67
2019-03-28T13:32:12.077Z,5.73
2019-03-28T13:34:39.352Z,6.83
2019-03-28T13:37:06.776Z,5.77
2019-03-28T13:39:34.038Z,6.60
2019-03-28T13:42:01.363Z,6.70
2019-03-28T13:44:30.221Z,6.63
2019-03-28T13:46:58.443Z,5.83
2019-03-28T13:49:25.782Z,10.20
2019-03-28T13:51:53.274Z,6.20
2019-03-28T13:54:23.201Z,6.90
2019-03-28T13:56:49.514Z,8.27
2019-03-28T13:59:16.778Z,8.70
2019-03-28T14:01:44.031Z,8.60
2019-03-28T14:04:11.371Z,8.90
2019-03-28T14:06:40.350Z,9.43
2019-03-28T14:09:07.740Z,9.20
2019-03-28T14:11:35.000Z,9.13
2019-03-28T14:14:02.337Z,9.00
2019-03-28T14:16:30.493Z,8.43
2019-03-28T14:18:57.853Z,7.77
2019-03-28T14:21:25.097Z,8.30
2019-03-28T14:23:52.613Z,8.17
2019-03-28T14:26:19.953Z,7.30
2019-03-28T14:28:47.199Z,6.93
2019-03-28T14:31:14.550Z,7.10
2019-03-28T14:33:41.802Z,7.43
2019-03-28T14:36:09.062Z,7.27
2019-03-28T14:38:37.631Z,6.27
2019-03-28T14:41:05.044Z,6.53
2019-03-28T14:43:32.286Z,6.30
2019-03-28T14:45:59.553Z,6.60
2019-03-28T14:48:27.660Z,7.00
2019-03-28T14:50:55.094Z,6.40
2019-03-28T14:53:22.470Z,6.50
2019-03-28T14:55:50.237Z,5.70
2019-03-28T14:58:17.566Z,6.50
2019-03-28T15:00:49.027Z,6.40
2019-03-28T15:03:25.730Z,7.73
2019-03-28T15:05:45.489Z,7.00
2019-03-28T15:08:12.805Z,11.80
2019-03-28T15:10:40.049Z,7.37
2019-03-28T15:13:07.313Z,6.43
2019-03-28T15:15:34.565Z,7.47
2019-03-28T15:18:02.087Z,7.40
2019-03-28T15:20:29.331Z,6.53
2019-03-28T15:22:56.590Z,5.90
2019-03-28T15:25:23.841Z,6.07
2019-03-28T15:27:51.099Z,6.03
2019-03-28T15:30:18.407Z,6.10
2019-03-28T15:32:45.942Z,5.87
2019-03-28T15:35:13.190Z,5.30
2019-03-28T15:37:40.699Z,6.27
2019-03-28T15:40:09.020Z,6.27
2019-03-28T15:42:36.285Z,5.57
2019-03-28T15:45:04.801Z,7.00
2019-03-28T15:47:32.057Z,5.57
2019-03-28T15:49:59.302Z,5.97
2019-03-28T15:52:27.604Z,6.00
2019-03-28T15:54:54.989Z,6.53
2019-03-28T15:57:22.247Z,6.50
2019-03-28T15:59:49.801Z,6.40
2019-03-28T16:02:17.037Z,5.20
2019-03-28T16:04:44.301Z,4.90
2019-03-28T16:07:11.546Z,5.50
2019-03-28T16:09:38.805Z,5.70
2019-03-28T16:12:06.057Z,5.37
2019-03-28T16:14:33.310Z,4.90
2019-03-28T16:17:00.829Z,5.77
2019-03-28T16:19:28.090Z,5.77
2019-03-28T16:21:55.339Z,5.77
2019-03-28T16:24:22.595Z,5.27
2019-03-28T16:26:50.099Z,5.20
2019-03-28T16:29:17.366Z,5.23
2019-03-28T16:31:44.606Z,4.73
2019-03-28T16:34:11.877Z,5.00
2019-03-28T16:36:39.398Z,4.53
2019-03-28T16:39:06.737Z,4.73
2019-03-28T16:41:34.155Z,4.77
2019-03-28T16:44:01.418Z,4.30
2019-03-28T16:46:28.946Z,5.00
2019-03-28T16:48:56.214Z,5.57
2019-03-28T16:51:23.457Z,5.40
2019-03-28T16:53:50.714Z,5.00
2019-03-28T16:56:17.970Z,5.30
2019-03-28T16:58:45.816Z,4.90
2019-03-28T17:01:13.234Z,4.40
2019-03-28T17:03:40.501Z,5.27
2019-03-28T17:06:08.034Z,4.97
2019-03-28T17:08:35.410Z,4.77
2019-03-28T17:11:02.678Z,3.93
2019-03-28T17:13:29.996Z,4.20
2019-03-28T17:15:57.265Z,3.80
2019-03-28T17:18:24.511Z,4.50
2019-03-28T17:20:52.026Z,4.13
2019-03-28T17:23:19.274Z,3.53
2019-03-28T17:25:46.701Z,4.07
2019-03-28T17:28:13.942Z,3.60
2019-03-28T17:30:41.201Z,3.50
2019-03-28T17:33:08.445Z,3.63
2019-03-28T17:35:35.979Z,3.40
2019-03-28T17:38:03.300Z,4.20
2019-03-28T17:40:30.634Z,3.57
2019-03-28T17:42:58.155Z,3.37
2019-03-28T17:45:25.769Z,3.40
2019-03-28T17:47:53.238Z,3.10
2019-03-28T17:50:20.499Z,3.90
2019-03-28T17:52:47.814Z,3.00
2019-03-28T17:55:15.083Z,3.60
2019-03-28T17:57:42.339Z,3.03
2019-03-28T18:00:10.080Z,2.93
2019-03-28T18:02:37.756Z,2.63
2019-03-28T18:05:09.648Z,2.70
2019-03-28T18:07:35.660Z,2.37
2019-03-28T18:10:04.651Z,2.70
2019-03-28T18:12:31.965Z,2.60
2019-03-28T18:14:59.206Z,2.80
2019-03-28T18:17:26.712Z,2.80
2019-03-28T18:19:53.957Z,2.90
2019-03-28T18:22:21.490Z,2.97
2019-03-28T18:24:48.729Z,2.87
2019-03-28T18:27:15.994Z,2.50
2019-03-28T18:29:43.323Z,2.80
2019-03-28T18:32:10.586Z,2.90
2019-03-28T18:34:38.090Z,3.13
2019-03-28T18:37:05.356Z,2.83
2019-03-28T18:39:32.593Z,3.00
2019-03-28T18:41:59.863Z,2.70
2019-03-28T18:44:27.101Z,2.67
2019-03-28T18:46:54.369Z,3.23
2019-03-28T18:49:21.610Z,3.03
2019-03-28T18:51:48.891Z,3.93
2019-03-28T18:54:16.134Z,3.10
2019-03-28T18:56:43.397Z,3.60
2019-03-28T18:59:10.643Z,3.63
2019-03-28T19:01:37.902Z,3.07
2019-03-28T19:04:05.146Z,3.07
2019-03-28T19:06:32.655Z,2.93
2019-03-28T19:08:59.917Z,3.40
2019-03-28T19:11:27.437Z,2.83
2019-03-28T19:13:54.695Z,3.70
2019-03-28T19:16:22.011Z,3.00
2019-03-28T19:18:49.502Z,3.30
2019-03-28T19:21:17.014Z,3.70
2019-03-28T19:23:44.275Z,3.37
2019-03-28T19:26:11.526Z,3.10
2019-03-28T19:28:38.794Z,3.67
2019-03-28T19:31:06.109Z,2.37
2019-03-28T19:33:33.397Z,3.77
2019-03-28T19:36:01.452Z,3.20
2019-03-28T19:38:29.141Z,2.97
2019-03-28T19:40:56.649Z,3.47
2019-03-28T19:43:23.981Z,3.63
2019-03-28T19:45:51.224Z,2.90
2019-03-28T19:48:18.487Z,3.43
2019-03-28T19:50:45.725Z,3.63
2019-03-28T19:53:13.251Z,3.80
2019-03-28T19:55:40.729Z,3.33
2019-03-28T19:58:08.766Z,3.70
2019-03-28T20:00:36.130Z,4.23
2019-03-28T20:03:03.462Z,4.10
2019-03-28T20:05:30.987Z,3.67
2019-03-28T20:07:58.252Z,3.80
2019-03-28T20:10:25.490Z,4.90
2019-03-28T20:12:52.760Z,4.87
2019-03-28T20:15:20.193Z,5.00
2019-03-28T20:17:48.141Z,6.23
2019-03-28T20:20:15.606Z,5.07
2019-03-28T20:22:45.016Z,7.47
2019-03-28T20:25:12.018Z,6.33
2019-03-28T20:27:39.261Z,7.83
2019-03-28T20:30:07.397Z,6.80
2019-03-28T20:32:34.638Z,7.33
2019-03-28T20:35:01.908Z,8.20
2019-03-28T20:37:29.225Z,11.13
2019-03-28T20:39:56.509Z,10.70
2019-03-28T20:42:23.835Z,11.40
2019-03-28T20:44:51.576Z,7.30
2019-03-28T20:47:19.204Z,8.00
2019-03-28T20:49:46.933Z,7.67
2019-03-28T20:52:14.230Z,8.27
2019-03-28T20:54:41.761Z,9.60
2019-03-28T20:57:09.844Z,8.80
2019-03-28T20:59:37.535Z,8.70
2019-03-28T21:02:04.865Z,13.80
2019-03-28T21:04:32.201Z,12.20
2019-03-28T21:06:59.880Z,10.00
2019-03-28T21:09:27.513Z,11.10
2019-03-28T21:11:54.770Z,10.30
2019-03-28T21:14:22.033Z,9.10
2019-03-28T21:16:49.281Z,8.40
2019-03-28T21:19:16.551Z,9.10
2019-03-28T21:21:44.632Z,8.87
2019-03-28T21:24:12.313Z,8.33
2019-03-28T21:26:40.940Z,8.70
2019-03-28T21:29:08.581Z,8.53
2019-03-28T21:31:48.834Z,8.30
2019-03-28T21:34:05.094Z,8.23
2019-03-28T21:36:32.622Z,8.93
2019-03-28T21:38:59.918Z,9.20
2019-03-28T21:41:27.254Z,8.20
2019-03-28T21:43:54.499Z,8.03
2019-03-28T21:46:21.760Z,8.70
2019-03-28T21:48:49.018Z,8.83
2019-03-28T21:51:16.290Z,10.10
2019-03-28T21:53:43.535Z,8.37
2019-03-28T21:56:14.023Z,8.80
2019-03-28T21:58:39.765Z,9.20
2019-03-28T22:01:07.340Z,7.90
2019-03-28T22:03:34.617Z,7.90
2019-03-28T22:06:01.891Z,7.97
2019-03-28T22:08:29.133Z,7.87
2019-03-28T22:10:56.401Z,8.60
2019-03-28T22:13:23.651Z,8.50
2019-03-28T22:15:50.923Z,8.50
2019-03-28T22:18:18.171Z,9.10
2019-03-28T22:20:45.434Z,7.50
2019-03-28T22:23:13.674Z,8.63
2019-03-28T22:25:41.127Z,9.00
2019-03-28T22:28:08.641Z,9.10
2019-03-28T22:30:35.905Z,7.23
2019-03-28T22:33:03.145Z,7.43
2019-03-28T22:35:30.474Z,8.67
2019-03-28T22:37:57.746Z,7.40
2019-03-28T22:40:24.987Z,7.60
2019-03-28T22:42:52.268Z,8.50
2019-03-28T22:45:19.505Z,7.77
2019-03-28T22:47:46.772Z,8.40
2019-03-28T22:50:14.082Z,8.23
2019-03-28T22:52:41.350Z,8.27
2019-03-28T22:55:08.975Z,7.43
2019-03-28T22:57:36.237Z,9.47
2019-03-28T23:00:05.022Z,8.67
2019-03-28T23:02:32.286Z,7.47
2019-03-28T23:04:59.537Z,8.17
2019-03-28T23:07:27.062Z,8.57
2019-03-28T23:09:54.310Z,8.20
2019-03-28T23:12:21.648Z,8.40
2019-03-28T23:14:48.894Z,8.70
2019-03-28T23:17:16.163Z,9.40
2019-03-28T23:19:43.421Z,8.53
2019-03-28T23:22:10.689Z,8.90
2019-03-28T23:24:39.147Z,9.93
2019-03-28T23:27:06.673Z,9.20
2019-03-28T23:29:34.427Z,8.30
2019-03-28T23:32:01.691Z,9.40
2019-03-28T23:34:28.933Z,9.63
2019-03-28T23:36:56.187Z,8.53
2019-03-28T23:39:23.454Z,8.07
2019-03-28T23:41:50.742Z,9.30
2019-03-28T23:44:18.013Z,8.10
2019-03-28T23:46:45.277Z,9.77
2019-03-28T23:49:13.210Z,9.00
2019-03-28T23:51:41.072Z,10.47
2019-03-28T23:54:08.336Z,9.13
2019-03-28T23:56:36.901Z,9.87
2019-03-28T23:59:04.231Z,9.30
